sensor_id;sensor_type;location;lat;lon;timestamp;P1;durP1;ratioP1;P2;durP2;ratioP2
33786;SDS011;29742;51.540;9.358;2022-11-20T00:00:12;4.82;;;2.17;;
33786;SDS011;29742;51.540;9.358;2022-11-20T00:05:13;4.15;;;2.55;;
33786;SDS011;29742;51.540;9.358;2022-11-20T00:10:14;3.33;;;2.20;;
33786;SDS011;29742;51.540;9.358;2022-11-20T00:15:15;3.60;;;2.10;;
33786;SDS011;29742;51.540;9.358;2022-11-20T00:20:16;3.00;;;2.05;;
33786;SDS011;29742;51.540;9.358;2022-11-20T00:25:17;4.32;;;1.98;;
33786;SDS011;29742;51.540;9.358;2022-11-20T00:30:18;3.20;;;2.38;;
33786;SDS011;29742;51.540;9.358;2022-11-20T00:35:19;4.47;;;2.30;;
33786;SDS011;29742;51.540;9.358;2022-11-20T00:40:20;5.72;;;2.78;;
33786;SDS011;29742;51.540;9.358;2022-11-20T00:45:21;3.50;;;2.72;;
33786;SDS011;29742;51.540;9.358;2022-11-20T00:50:22;3.00;;;2.10;;
33786;SDS011;29742;51.540;9.358;2022-11-20T00:55:23;3.17;;;2.30;;
33786;SDS011;29742;51.540;9.358;2022-11-20T01:00:24;4.78;;;2.30;;
33786;SDS011;29742;51.540;9.358;2022-11-20T01:05:25;4.45;;;2.40;;
33786;SDS011;29742;51.540;9.358;2022-11-20T01:10:26;4.88;;;2.75;;
33786;SDS011;29742;51.540;9.358;2022-11-20T01:15:27;2.88;;;2.15;;
33786;SDS011;29742;51.540;9.358;2022-11-20T01:20:28;3.53;;;2.38;;
33786;SDS011;29742;51.540;9.358;2022-11-20T01:25:29;3.30;;;2.63;;
33786;SDS011;29742;51.540;9.358;2022-11-20T01:30:30;3.47;;;2.40;;
33786;SDS011;29742;51.540;9.358;2022-11-20T01:35:31;3.78;;;2.42;;
33786;SDS011;29742;51.540;9.358;2022-11-20T01:40:32;4.32;;;2.65;;
33786;SDS011;29742;51.540;9.358;2022-11-20T01:50:52;2.70;;;2.40;;
33786;SDS011;29742;51.540;9.358;2022-11-20T01:55:55;4.28;;;2.40;;
33786;SDS011;29742;51.540;9.358;2022-11-20T02:00:57;3.47;;;2.80;;
33786;SDS011;29742;51.540;9.358;2022-11-20T02:06:04;3.25;;;2.40;;
33786;SDS011;29742;51.540;9.358;2022-11-20T02:11:05;4.50;;;2.85;;
33786;SDS011;29742;51.540;9.358;2022-11-20T02:16:20;3.20;;;2.38;;
33786;SDS011;29742;51.540;9.358;2022-11-20T02:26:38;2.92;;;2.33;;
33786;SDS011;29742;51.540;9.358;2022-11-20T02:31:41;3.33;;;2.63;;
33786;SDS011;29742;51.540;9.358;2022-11-20T02:36:42;3.20;;;2.40;;
33786;SDS011;29742;51.540;9.358;2022-11-20T02:41:44;3.28;;;2.35;;
33786;SDS011;29742;51.540;9.358;2022-11-20T02:46:45;3.47;;;2.63;;
33786;SDS011;29742;51.540;9.358;2022-11-20T02:51:46;3.63;;;2.42;;
33786;SDS011;29742;51.540;9.358;2022-11-20T02:56:47;2.85;;;2.40;;
33786;SDS011;29742;51.540;9.358;2022-11-20T03:01:48;3.30;;;2.47;;
33786;SDS011;29742;51.540;9.358;2022-11-20T03:06:49;4.60;;;2.90;;
33786;SDS011;29742;51.540;9.358;2022-11-20T03:11:50;4.18;;;2.90;;
33786;SDS011;29742;51.540;9.358;2022-11-20T03:16:51;3.78;;;2.72;;
33786;SDS011;29742;51.540;9.358;2022-11-20T03:21:52;6.50;;;2.83;;
33786;SDS011;29742;51.540;9.358;2022-11-20T03:26:53;3.63;;;2.75;;
33786;SDS011;29742;51.540;9.358;2022-11-20T03:31:54;4.28;;;2.95;;
33786;SDS011;29742;51.540;9.358;2022-11-20T03:36:55;5.45;;;3.40;;
33786;SDS011;29742;51.540;9.358;2022-11-20T03:41:56;3.75;;;2.30;;
33786;SDS011;29742;51.540;9.358;2022-11-20T03:46:57;3.60;;;2.47;;
33786;SDS011;29742;51.540;9.358;2022-11-20T03:51:58;4.75;;;2.50;;
33786;SDS011;29742;51.540;9.358;2022-11-20T03:56:58;9.90;;;3.25;;
33786;SDS011;29742;51.540;9.358;2022-11-20T04:01:59;4.35;;;3.10;;
33786;SDS011;29742;51.540;9.358;2022-11-20T04:07:00;4.13;;;2.80;;
33786;SDS011;29742;51.540;9.358;2022-11-20T04:12:01;4.00;;;3.03;;
33786;SDS011;29742;51.540;9.358;2022-11-20T04:17:03;4.57;;;2.95;;
33786;SDS011;29742;51.540;9.358;2022-11-20T04:22:04;3.67;;;2.38;;
33786;SDS011;29742;51.540;9.358;2022-11-20T04:27:05;5.03;;;3.45;;
33786;SDS011;29742;51.540;9.358;2022-11-20T04:32:06;4.47;;;2.92;;
33786;SDS011;29742;51.540;9.358;2022-11-20T04:37:07;5.05;;;3.08;;
33786;SDS011;29742;51.540;9.358;2022-11-20T04:42:08;4.15;;;3.08;;
33786;SDS011;29742;51.540;9.358;2022-11-20T04:47:28;3.60;;;3.03;;
33786;SDS011;29742;51.540;9.358;2022-11-20T04:52:29;5.10;;;3.28;;
33786;SDS011;29742;51.540;9.358;2022-11-20T04:57:30;5.20;;;2.80;;
33786;SDS011;29742;51.540;9.358;2022-11-20T05:02:31;3.67;;;2.67;;
33786;SDS011;29742;51.540;9.358;2022-11-20T05:07:32;3.33;;;2.50;;
33786;SDS011;29742;51.540;9.358;2022-11-20T05:12:33;4.63;;;2.90;;
33786;SDS011;29742;51.540;9.358;2022-11-20T05:17:34;4.32;;;2.88;;
33786;SDS011;29742;51.540;9.358;2022-11-20T05:22:35;4.13;;;3.08;;
33786;SDS011;29742;51.540;9.358;2022-11-20T05:27:36;4.35;;;2.70;;
33786;SDS011;29742;51.540;9.358;2022-11-20T05:32:36;3.92;;;2.70;;
33786;SDS011;29742;51.540;9.358;2022-11-20T05:37:38;4.35;;;2.72;;
33786;SDS011;29742;51.540;9.358;2022-11-20T05:42:39;4.22;;;2.78;;
33786;SDS011;29742;51.540;9.358;2022-11-20T05:47:40;4.00;;;2.90;;
33786;SDS011;29742;51.540;9.358;2022-11-20T05:52:40;4.15;;;2.50;;
33786;SDS011;29742;51.540;9.358;2022-11-20T05:57:41;4.32;;;3.05;;
33786;SDS011;29742;51.540;9.358;2022-11-20T06:02:42;3.95;;;2.72;;
33786;SDS011;29742;51.540;9.358;2022-11-20T06:07:43;3.60;;;2.97;;
33786;SDS011;29742;51.540;9.358;2022-11-20T06:12:44;3.90;;;2.65;;
33786;SDS011;29742;51.540;9.358;2022-11-20T06:17:45;4.38;;;2.97;;
33786;SDS011;29742;51.540;9.358;2022-11-20T06:22:46;4.25;;;2.78;;
33786;SDS011;29742;51.540;9.358;2022-11-20T06:27:47;4.38;;;2.85;;
33786;SDS011;29742;51.540;9.358;2022-11-20T06:32:48;3.75;;;2.80;;
33786;SDS011;29742;51.540;9.358;2022-11-20T06:37:49;4.47;;;2.78;;
33786;SDS011;29742;51.540;9.358;2022-11-20T06:42:50;2.38;;;2.17;;
33786;SDS011;29742;51.540;9.358;2022-11-20T06:47:51;3.03;;;2.50;;
33786;SDS011;29742;51.540;9.358;2022-11-20T06:52:52;2.90;;;2.35;;
33786;SDS011;29742;51.540;9.358;2022-11-20T06:57:53;3.47;;;2.70;;
33786;SDS011;29742;51.540;9.358;2022-11-20T07:02:54;4.13;;;2.50;;
33786;SDS011;29742;51.540;9.358;2022-11-20T07:07:55;3.65;;;2.70;;
33786;SDS011;29742;51.540;9.358;2022-11-20T07:12:56;4.88;;;2.97;;
33786;SDS011;29742;51.540;9.358;2022-11-20T07:18:00;4.65;;;3.30;;
33786;SDS011;29742;51.540;9.358;2022-11-20T07:23:01;4.47;;;2.83;;
33786;SDS011;29742;51.540;9.358;2022-11-20T07:28:02;5.20;;;3.30;;
33786;SDS011;29742;51.540;9.358;2022-11-20T07:33:03;4.13;;;2.88;;
33786;SDS011;29742;51.540;9.358;2022-11-20T07:38:04;4.07;;;3.13;;
33786;SDS011;29742;51.540;9.358;2022-11-20T07:43:05;4.72;;;3.00;;
33786;SDS011;29742;51.540;9.358;2022-11-20T07:48:06;4.53;;;3.20;;
33786;SDS011;29742;51.540;9.358;2022-11-20T07:53:07;4.78;;;3.20;;
33786;SDS011;29742;51.540;9.358;2022-11-20T07:58:08;5.25;;;3.20;;
33786;SDS011;29742;51.540;9.358;2022-11-20T08:03:09;4.78;;;2.83;;
33786;SDS011;29742;51.540;9.358;2022-11-20T08:08:10;4.18;;;2.70;;
33786;SDS011;29742;51.540;9.358;2022-11-20T08:13:11;5.60;;;3.42;;
33786;SDS011;29742;51.540;9.358;2022-11-20T08:18:30;4.88;;;3.40;;
33786;SDS011;29742;51.540;9.358;2022-11-20T08:23:31;4.65;;;3.45;;
33786;SDS011;29742;51.540;9.358;2022-11-20T08:28:32;5.60;;;3.85;;
33786;SDS011;29742;51.540;9.358;2022-11-20T08:33:33;4.43;;;2.80;;
33786;SDS011;29742;51.540;9.358;2022-11-20T08:38:34;15.55;;;5.30;;
33786;SDS011;29742;51.540;9.358;2022-11-20T08:43:35;6.55;;;3.50;;
33786;SDS011;29742;51.540;9.358;2022-11-20T08:48:36;10.70;;;3.35;;
33786;SDS011;29742;51.540;9.358;2022-11-20T08:53:38;6.70;;;3.50;;
33786;SDS011;29742;51.540;9.358;2022-11-20T08:58:39;8.70;;;4.32;;
33786;SDS011;29742;51.540;9.358;2022-11-20T09:03:41;7.57;;;3.67;;
33786;SDS011;29742;51.540;9.358;2022-11-20T09:08:42;7.00;;;3.58;;
33786;SDS011;29742;51.540;9.358;2022-11-20T09:13:43;7.80;;;3.70;;
33786;SDS011;29742;51.540;9.358;2022-11-20T09:18:44;9.80;;;5.22;;
33786;SDS011;29742;51.540;9.358;2022-11-20T09:23:45;5.85;;;3.53;;
33786;SDS011;29742;51.540;9.358;2022-11-20T09:28:46;6.72;;;3.58;;
33786;SDS011;29742;51.540;9.358;2022-11-20T09:33:47;5.28;;;3.47;;
33786;SDS011;29742;51.540;9.358;2022-11-20T09:38:48;8.05;;;3.65;;
33786;SDS011;29742;51.540;9.358;2022-11-20T09:49:02;9.23;;;3.38;;
33786;SDS011;29742;51.540;9.358;2022-11-20T09:59:15;8.83;;;4.47;;
33786;SDS011;29742;51.540;9.358;2022-11-20T10:04:21;12.88;;;4.10;;
33786;SDS011;29742;51.540;9.358;2022-11-20T10:24:48;6.40;;;3.53;;
33786;SDS011;29742;51.540;9.358;2022-11-20T10:29:57;6.13;;;3.60;;
33786;SDS011;29742;51.540;9.358;2022-11-20T10:50:24;5.43;;;3.33;;
33786;SDS011;29742;51.540;9.358;2022-11-20T10:55:35;7.07;;;4.18;;
33786;SDS011;29742;51.540;9.358;2022-11-20T11:00:39;5.03;;;3.08;;
33786;SDS011;29742;51.540;9.358;2022-11-20T11:05:45;5.47;;;3.13;;
33786;SDS011;29742;51.540;9.358;2022-11-20T11:10:56;5.68;;;3.10;;
33786;SDS011;29742;51.540;9.358;2022-11-20T11:15:58;6.10;;;2.90;;
33786;SDS011;29742;51.540;9.358;2022-11-20T11:21:00;4.13;;;2.72;;
33786;SDS011;29742;51.540;9.358;2022-11-20T11:26:02;6.70;;;2.83;;
33786;SDS011;29742;51.540;9.358;2022-11-20T11:31:03;10.50;;;3.28;;
33786;SDS011;29742;51.540;9.358;2022-11-20T11:36:15;9.60;;;3.20;;
33786;SDS011;29742;51.540;9.358;2022-11-20T11:41:23;8.25;;;3.78;;
33786;SDS011;29742;51.540;9.358;2022-11-20T11:46:30;13.63;;;4.60;;
33786;SDS011;29742;51.540;9.358;2022-11-20T11:51:38;9.70;;;3.97;;
33786;SDS011;29742;51.540;9.358;2022-11-20T11:56:39;10.10;;;3.78;;
33786;SDS011;29742;51.540;9.358;2022-11-20T12:01:47;5.53;;;3.42;;
33786;SDS011;29742;51.540;9.358;2022-11-20T12:06:52;7.30;;;3.75;;
33786;SDS011;29742;51.540;9.358;2022-11-20T12:11:55;10.77;;;4.10;;
33786;SDS011;29742;51.540;9.358;2022-11-20T12:16:59;8.32;;;4.07;;
33786;SDS011;29742;51.540;9.358;2022-11-20T12:22:12;8.25;;;3.97;;
33786;SDS011;29742;51.540;9.358;2022-11-20T12:37:55;6.45;;;4.30;;
33786;SDS011;29742;51.540;9.358;2022-11-20T12:43:43;12.15;;;4.40;;
33786;SDS011;29742;51.540;9.358;2022-11-20T13:09:45;6.13;;;3.67;;
33786;SDS011;29742;51.540;9.358;2022-11-20T13:14:54;5.65;;;3.85;;
33786;SDS011;29742;51.540;9.358;2022-11-20T13:19:58;7.57;;;3.88;;
33786;SDS011;29742;51.540;9.358;2022-11-20T13:25:00;7.78;;;4.15;;
33786;SDS011;29742;51.540;9.358;2022-11-20T13:30:14;6.70;;;4.03;;
33786;SDS011;29742;51.540;9.358;2022-11-20T13:40:57;10.65;;;3.80;;
33786;SDS011;29742;51.540;9.358;2022-11-20T13:45:59;7.47;;;4.18;;
33786;SDS011;29742;51.540;9.358;2022-11-20T13:51:03;5.00;;;3.65;;
33786;SDS011;29742;51.540;9.358;2022-11-20T14:01:20;5.18;;;3.17;;
33786;SDS011;29742;51.540;9.358;2022-11-20T14:06:25;8.25;;;3.70;;
33786;SDS011;29742;51.540;9.358;2022-11-20T14:11:28;7.38;;;3.67;;
33786;SDS011;29742;51.540;9.358;2022-11-20T14:16:30;9.02;;;3.63;;
33786;SDS011;29742;51.540;9.358;2022-11-20T14:21:32;8.00;;;4.03;;
33786;SDS011;29742;51.540;9.358;2022-11-20T14:26:33;7.25;;;3.90;;
33786;SDS011;29742;51.540;9.358;2022-11-20T14:31:35;6.55;;;3.58;;
33786;SDS011;29742;51.540;9.358;2022-11-20T14:36:36;8.32;;;3.53;;
33786;SDS011;29742;51.540;9.358;2022-11-20T14:41:38;5.78;;;3.67;;
33786;SDS011;29742;51.540;9.358;2022-11-20T14:46:39;4.68;;;3.28;;
33786;SDS011;29742;51.540;9.358;2022-11-20T14:51:41;9.82;;;3.95;;
33786;SDS011;29742;51.540;9.358;2022-11-20T14:56:42;7.03;;;3.88;;
33786;SDS011;29742;51.540;9.358;2022-11-20T15:06:59;7.93;;;4.30;;
33786;SDS011;29742;51.540;9.358;2022-11-20T15:12:01;8.73;;;4.70;;
33786;SDS011;29742;51.540;9.358;2022-11-20T15:17:02;6.95;;;4.18;;
33786;SDS011;29742;51.540;9.358;2022-11-20T15:22:04;10.35;;;5.30;;
33786;SDS011;29742;51.540;9.358;2022-11-20T15:27:05;8.27;;;4.03;;
33786;SDS011;29742;51.540;9.358;2022-11-20T15:32:08;9.20;;;5.50;;
33786;SDS011;29742;51.540;9.358;2022-11-20T15:37:09;7.53;;;4.35;;
33786;SDS011;29742;51.540;9.358;2022-11-20T15:42:10;13.63;;;4.93;;
33786;SDS011;29742;51.540;9.358;2022-11-20T15:47:11;7.70;;;4.60;;
33786;SDS011;29742;51.540;9.358;2022-11-20T15:52:11;6.78;;;4.57;;
33786;SDS011;29742;51.540;9.358;2022-11-20T15:57:13;7.70;;;4.80;;
33786;SDS011;29742;51.540;9.358;2022-11-20T16:02:15;8.75;;;5.13;;
33786;SDS011;29742;51.540;9.358;2022-11-20T16:07:16;10.45;;;5.10;;
33786;SDS011;29742;51.540;9.358;2022-11-20T16:12:17;9.23;;;5.10;;
33786;SDS011;29742;51.540;9.358;2022-11-20T16:17:37;10.88;;;5.47;;
33786;SDS011;29742;51.540;9.358;2022-11-20T16:22:47;7.32;;;5.32;;
33786;SDS011;29742;51.540;9.358;2022-11-20T16:27:48;11.40;;;5.60;;
33786;SDS011;29742;51.540;9.358;2022-11-20T16:32:49;12.25;;;5.25;;
33786;SDS011;29742;51.540;9.358;2022-11-20T16:37:50;9.95;;;4.60;;
33786;SDS011;29742;51.540;9.358;2022-11-20T16:42:51;7.28;;;4.53;;
33786;SDS011;29742;51.540;9.358;2022-11-20T16:47:52;9.95;;;5.07;;
33786;SDS011;29742;51.540;9.358;2022-11-20T16:52:54;12.60;;;5.38;;
33786;SDS011;29742;51.540;9.358;2022-11-20T16:57:55;10.38;;;5.20;;
33786;SDS011;29742;51.540;9.358;2022-11-20T17:02:56;9.00;;;5.05;;
33786;SDS011;29742;51.540;9.358;2022-11-20T17:07:57;9.80;;;5.07;;
33786;SDS011;29742;51.540;9.358;2022-11-20T17:12:58;7.10;;;5.32;;
33786;SDS011;29742;51.540;9.358;2022-11-20T17:17:59;10.45;;;5.30;;
33786;SDS011;29742;51.540;9.358;2022-11-20T17:23:02;14.43;;;5.88;;
33786;SDS011;29742;51.540;9.358;2022-11-20T17:28:03;11.15;;;5.70;;
33786;SDS011;29742;51.540;9.358;2022-11-20T17:33:04;13.68;;;6.47;;
33786;SDS011;29742;51.540;9.358;2022-11-20T17:38:05;11.07;;;5.63;;
33786;SDS011;29742;51.540;9.358;2022-11-20T17:43:06;11.43;;;5.65;;
33786;SDS011;29742;51.540;9.358;2022-11-20T17:48:07;8.88;;;5.70;;
33786;SDS011;29742;51.540;9.358;2022-11-20T17:53:08;12.35;;;6.13;;
33786;SDS011;29742;51.540;9.358;2022-11-20T17:58:09;10.95;;;5.15;;
33786;SDS011;29742;51.540;9.358;2022-11-20T18:03:10;11.70;;;5.25;;
33786;SDS011;29742;51.540;9.358;2022-11-20T18:08:11;10.32;;;5.78;;
33786;SDS011;29742;51.540;9.358;2022-11-20T18:13:12;10.02;;;5.68;;
33786;SDS011;29742;51.540;9.358;2022-11-20T18:18:13;14.43;;;5.90;;
33786;SDS011;29742;51.540;9.358;2022-11-20T18:23:14;10.20;;;5.25;;
33786;SDS011;29742;51.540;9.358;2022-11-20T18:28:15;9.07;;;5.43;;
33786;SDS011;29742;51.540;9.358;2022-11-20T18:33:18;11.90;;;5.60;;
33786;SDS011;29742;51.540;9.358;2022-11-20T18:38:19;8.45;;;4.88;;
33786;SDS011;29742;51.540;9.358;2022-11-20T18:43:20;9.57;;;4.70;;
33786;SDS011;29742;51.540;9.358;2022-11-20T18:48:40;6.28;;;4.50;;
33786;SDS011;29742;51.540;9.358;2022-11-20T18:53:41;6.82;;;4.70;;
33786;SDS011;29742;51.540;9.358;2022-11-20T18:58:42;7.63;;;4.97;;
33786;SDS011;29742;51.540;9.358;2022-11-20T19:03:43;7.93;;;4.57;;
33786;SDS011;29742;51.540;9.358;2022-11-20T19:08:45;8.40;;;5.18;;
33786;SDS011;29742;51.540;9.358;2022-11-20T19:13:46;7.88;;;5.32;;
33786;SDS011;29742;51.540;9.358;2022-11-20T19:18:47;6.13;;;4.25;;
33786;SDS011;29742;51.540;9.358;2022-11-20T19:23:49;6.88;;;4.90;;
33786;SDS011;29742;51.540;9.358;2022-11-20T19:28:51;8.10;;;5.20;;
33786;SDS011;29742;51.540;9.358;2022-11-20T19:33:56;7.78;;;5.03;;
33786;SDS011;29742;51.540;9.358;2022-11-20T19:38:57;10.35;;;5.35;;
33786;SDS011;29742;51.540;9.358;2022-11-20T19:49:03;7.13;;;4.78;;
33786;SDS011;29742;51.540;9.358;2022-11-20T19:54:04;11.82;;;5.22;;
33786;SDS011;29742;51.540;9.358;2022-11-20T19:59:05;11.10;;;5.18;;
33786;SDS011;29742;51.540;9.358;2022-11-20T20:04:06;13.32;;;4.65;;
33786;SDS011;29742;51.540;9.358;2022-11-20T20:09:08;17.58;;;5.72;;
33786;SDS011;29742;51.540;9.358;2022-11-20T20:14:11;10.75;;;5.40;;
33786;SDS011;29742;51.540;9.358;2022-11-20T20:19:14;13.10;;;4.80;;
33786;SDS011;29742;51.540;9.358;2022-11-20T20:24:15;10.98;;;4.68;;
33786;SDS011;29742;51.540;9.358;2022-11-20T20:29:16;15.82;;;6.78;;
33786;SDS011;29742;51.540;9.358;2022-11-20T20:34:19;13.25;;;5.40;;
33786;SDS011;29742;51.540;9.358;2022-11-20T20:39:20;9.18;;;4.78;;
33786;SDS011;29742;51.540;9.358;2022-11-20T20:44:23;12.43;;;4.80;;
33786;SDS011;29742;51.540;9.358;2022-11-20T20:49:42;19.02;;;4.20;;
33786;SDS011;29742;51.540;9.358;2022-11-20T20:54:43;10.93;;;4.55;;
33786;SDS011;29742;51.540;9.358;2022-11-20T20:59:44;11.20;;;4.28;;
33786;SDS011;29742;51.540;9.358;2022-11-20T21:04:45;23.80;;;4.95;;
33786;SDS011;29742;51.540;9.358;2022-11-20T21:09:46;15.02;;;5.13;;
33786;SDS011;29742;51.540;9.358;2022-11-20T21:14:47;7.32;;;3.88;;
33786;SDS011;29742;51.540;9.358;2022-11-20T21:19:48;11.35;;;4.47;;
33786;SDS011;29742;51.540;9.358;2022-11-20T21:24:49;10.02;;;3.70;;
33786;SDS011;29742;51.540;9.358;2022-11-20T21:29:50;12.82;;;3.83;;
33786;SDS011;29742;51.540;9.358;2022-11-20T21:34:51;8.60;;;4.20;;
33786;SDS011;29742;51.540;9.358;2022-11-20T21:39:52;8.32;;;4.07;;
33786;SDS011;29742;51.540;9.358;2022-11-20T21:44:53;8.15;;;4.20;;
33786;SDS011;29742;51.540;9.358;2022-11-20T21:49:54;12.13;;;4.43;;
33786;SDS011;29742;51.540;9.358;2022-11-20T21:54:55;6.90;;;3.75;;
33786;SDS011;29742;51.540;9.358;2022-11-20T21:59:55;8.60;;;3.28;;
33786;SDS011;29742;51.540;9.358;2022-11-20T22:04:56;10.45;;;4.18;;
33786;SDS011;29742;51.540;9.358;2022-11-20T22:09:57;4.88;;;3.20;;
33786;SDS011;29742;51.540;9.358;2022-11-20T22:14:58;6.90;;;3.15;;
33786;SDS011;29742;51.540;9.358;2022-11-20T22:19:59;8.38;;;4.35;;
33786;SDS011;29742;51.540;9.358;2022-11-20T22:25:00;6.22;;;3.65;;
33786;SDS011;29742;51.540;9.358;2022-11-20T22:30:01;9.45;;;4.50;;
33786;SDS011;29742;51.540;9.358;2022-11-20T22:35:02;9.65;;;3.53;;
33786;SDS011;29742;51.540;9.358;2022-11-20T22:40:03;7.18;;;3.50;;
33786;SDS011;29742;51.540;9.358;2022-11-20T22:45:04;6.70;;;4.18;;
33786;SDS011;29742;51.540;9.358;2022-11-20T22:50:06;8.07;;;3.30;;
33786;SDS011;29742;51.540;9.358;2022-11-20T22:55:07;6.13;;;3.85;;
33786;SDS011;29742;51.540;9.358;2022-11-20T23:00:08;5.68;;;3.70;;
33786;SDS011;29742;51.540;9.358;2022-11-20T23:05:09;5.90;;;3.80;;
33786;SDS011;29742;51.540;9.358;2022-11-20T23:10:10;5.35;;;3.40;;
33786;SDS011;29742;51.540;9.358;2022-11-20T23:15:12;6.07;;;3.83;;
33786;SDS011;29742;51.540;9.358;2022-11-20T23:20:13;6.07;;;3.75;;
33786;SDS011;29742;51.540;9.358;2022-11-20T23:25:13;5.25;;;3.78;;
33786;SDS011;29742;51.540;9.358;2022-11-20T23:30:14;6.35;;;3.45;;
33786;SDS011;29742;51.540;9.358;2022-11-20T23:35:15;5.65;;;3.42;;
33786;SDS011;29742;51.540;9.358;2022-11-20T23:40:16;7.85;;;4.28;;
33786;SDS011;29742;51.540;9.358;2022-11-20T23:45:17;5.40;;;3.70;;
33786;SDS011;29742;51.540;9.358;2022-11-20T23:50:18;4.72;;;2.95;;
33786;SDS011;29742;51.540;9.358;2022-11-20T23:55:19;4.88;;;3.55;;
